Time,TemperatureF,DewpointF,PressureIn,WindDirection,WindDirectionDegrees,WindSpeedMPH,WindSpeedGustMPH,Humidity,HourlyPrecipIn,Conditions,Clouds,dailyrainin,SoftwareType,DateUTC
2013-02-21 00:00:00,51.8,48.4,30.09,ENE,61,0.0,0.0,88,0.00,,,0.00,Wunderground v.1.15,2013-02-21 05:00:00,
2013-02-21 00:05:00,51.7,48.3,30.08,ENE,61,0.0,0.0,88,0.00,,,0.00,Wunderground v.1.15,2013-02-21 05:05:00,
2013-02-21 00:15:00,51.6,48.5,30.08,ENE,61,0.0,0.0,89,0.00,,,0.00,Wunderground v.1.15,2013-02-21 05:15:00,
2013-02-21 00:20:00,51.5,48.4,30.08,ENE,61,0.0,0.0,89,0.00,,,0.00,Wunderground v.1.15,2013-02-21 05:20:00,
2013-02-21 00:30:00,51.3,48.2,30.08,ENE,61,0.0,0.0,89,0.00,,,0.00,Wunderground v.1.15,2013-02-21 05:30:00,
2013-02-21 00:35:00,51.2,48.1,30.08,ENE,61,0.0,0.0,89,0.00,,,0.00,Wunderground v.1.15,2013-02-21 05:35:00,
2013-02-21 00:45:00,50.9,47.8,30.08,ENE,61,0.0,0.0,89,0.00,,,0.00,Wunderground v.1.15,2013-02-21 05:45:00,
2013-02-21 00:50:00,50.7,47.9,30.08,ENE,61,0.0,0.0,90,0.00,,,0.00,Wunderground v.1.15,2013-02-21 05:50:00,
2013-02-21 00:55:00,50.6,47.8,30.07,ENE,61,0.0,0.0,90,0.00,,,0.00,Wunderground v.1.15,2013-02-21 05:55:00,
2013-02-21 01:00:00,50.5,47.7,30.07,ENE,61,0.0,0.0,90,0.00,,,0.00,Wunderground v.1.15,2013-02-21 06:00:00,
2013-02-21 01:10:00,50.3,47.5,30.08,ENE,61,0.0,0.0,90,0.00,,,0.00,Wunderground v.1.15,2013-02-21 06:10:00,
2013-02-21 01:15:00,50.2,47.4,30.08,ENE,61,0.0,0.0,90,0.00,,,0.00,Wunderground v.1.15,2013-02-21 06:15:00,
2013-02-21 01:25:00,50.0,47.5,30.08,ENE,61,0.0,0.0,91,0.00,,,0.00,Wunderground v.1.15,2013-02-21 06:25:00,
2013-02-21 01:30:00,49.9,47.4,30.08,ENE,61,0.0,0.0,91,0.00,,,0.00,Wunderground v.1.15,2013-02-21 06:30:00,
2013-02-21 01:40:00,49.8,47.6,30.07,ENE,61,0.0,0.0,92,0.00,,,0.00,Wunderground v.1.15,2013-02-21 06:40:00,
2013-02-21 01:50:00,49.6,47.4,30.07,ENE,61,0.0,0.0,92,0.00,,,0.00,Wunderground v.1.15,2013-02-21 06:50:00,
2013-02-21 01:55:00,49.6,47.4,30.07,ENE,61,0.0,0.0,92,0.00,,,0.00,Wunderground v.1.15,2013-02-21 06:55:00,
2013-02-21 02:05:00,49.4,47.5,30.07,ENE,61,0.0,0.0,93,0.00,,,0.00,Wunderground v.1.15,2013-02-21 07:05:00,
2013-02-21 02:15:00,49.5,47.6,30.07,ENE,61,0.0,0.0,93,0.00,,,0.00,Wunderground v.1.15,2013-02-21 07:15:00,
2013-02-21 02:20:00,49.5,47.6,30.07,ENE,61,0.0,0.0,93,0.00,,,0.00,Wunderground v.1.15,2013-02-21 07:20:00,
2013-02-21 02:30:00,49.6,47.9,30.06,ENE,61,0.0,0.0,94,0.00,,,0.00,Wunderground v.1.15,2013-02-21 07:30:00,
2013-02-21 02:40:00,49.4,47.5,30.07,ENE,61,0.0,0.0,93,0.00,,,0.00,Wunderground v.1.15,2013-02-21 07:40:00,
2013-02-21 02:45:00,49.4,47.7,30.07,ENE,61,0.0,0.0,94,0.00,,,0.00,Wunderground v.1.15,2013-02-21 07:45:00,
2013-02-21 02:55:00,49.3,47.6,30.06,ENE,61,0.0,0.0,94,0.00,,,0.00,Wunderground v.1.15,2013-02-21 07:55:00,
2013-02-21 03:00:00,49.4,47.7,30.06,ENE,61,0.0,0.0,94,0.00,,,0.00,Wunderground v.1.15,2013-02-21 08:00:00,
2013-02-21 03:10:00,49.4,47.7,30.06,ENE,61,0.0,0.0,94,0.00,,,0.00,Wunderground v.1.15,2013-02-21 08:10:00,
2013-02-21 03:15:00,49.5,47.8,30.06,ENE,61,0.0,0.0,94,0.00,,,0.00,Wunderground v.1.15,2013-02-21 08:15:00,
2013-02-21 03:25:00,49.4,47.7,30.06,ENE,61,0.0,0.0,94,0.00,,,0.00,Wunderground v.1.15,2013-02-21 08:25:00,
2013-02-21 03:30:00,49.4,47.7,30.06,ENE,61,0.0,0.0,94,0.00,,,0.00,Wunderground v.1.15,2013-02-21 08:30:00,
2013-02-21 03:40:00,49.3,47.4,30.06,ENE,61,0.0,0.0,93,0.00,,,0.00,Wunderground v.1.15,2013-02-21 08:40:00,
2013-02-21 03:45:00,49.3,47.4,30.06,ENE,61,0.0,0.0,93,0.00,,,0.00,Wunderground v.1.15,2013-02-21 08:45:00,
2013-02-21 03:55:00,49.2,47.3,30.05,ENE,61,0.0,0.0,93,0.00,,,0.00,Wunderground v.1.15,2013-02-21 08:55:00,
2013-02-21 04:00:00,49.2,47.3,30.05,ENE,61,0.0,0.0,93,0.00,,,0.00,Wunderground v.1.15,2013-02-21 09:00:00,
2013-02-21 04:10:00,49.1,47.4,30.05,ENE,61,0.0,0.0,94,0.00,,,0.00,Wunderground v.1.15,2013-02-21 09:10:00,
2013-02-21 04:15:00,49.1,47.4,30.05,ENE,61,0.0,0.0,94,0.00,,,0.00,Wunderground v.1.15,2013-02-21 09:15:00,
2013-02-21 04:25:00,49.1,47.4,30.05,ENE,61,0.0,0.0,94,0.00,,,0.00,Wunderground v.1.15,2013-02-21 09:25:00,
2013-02-21 04:30:00,49.1,47.4,30.06,ENE,61,0.0,0.0,94,0.00,,,0.00,Wunderground v.1.15,2013-02-21 09:30:00,
2013-02-21 04:40:00,49.2,47.5,30.06,ENE,61,0.0,0.0,94,0.00,,,0.00,Wunderground v.1.15,2013-02-21 09:40:00,
2013-02-21 04:50:00,49.3,47.6,30.07,ENE,61,0.0,0.0,94,0.00,,,0.00,Wunderground v.1.15,2013-02-21 09:50:00,
2013-02-21 04:55:00,49.3,47.6,30.07,ENE,61,0.0,0.0,94,0.00,,,0.00,Wunderground v.1.15,2013-02-21 09:55:00,
2013-02-21 05:05:00,49.3,47.6,30.06,ENE,61,0.0,0.0,94,0.00,,,0.00,Wunderground v.1.15,2013-02-21 10:05:00,
2013-02-21 05:15:00,49.2,47.5,30.07,ENE,61,0.0,0.0,94,0.00,,,0.00,Wunderground v.1.15,2013-02-21 10:15:00,
2013-02-21 05:20:00,49.2,47.5,30.07,ENE,61,0.0,0.0,94,0.00,,,0.00,Wunderground v.1.15,2013-02-21 10:20:00,
2013-02-21 05:30:00,49.0,47.3,30.06,ENE,61,0.0,0.0,94,0.00,,,0.00,Wunderground v.1.15,2013-02-21 10:30:00,
2013-02-21 05:35:00,49.1,47.4,30.06,ENE,61,0.0,0.0,94,0.00,,,0.00,Wunderground v.1.15,2013-02-21 10:35:00,
2013-02-21 05:45:00,49.1,47.4,30.07,ENE,61,0.0,0.0,94,0.00,,,0.00,Wunderground v.1.15,2013-02-21 10:45:00,
2013-02-21 05:55:00,49.2,47.8,30.07,ENE,61,0.0,0.0,95,0.00,,,0.00,Wunderground v.1.15,2013-02-21 10:55:00,
2013-02-21 06:00:00,49.2,47.5,30.07,ENE,61,0.0,0.0,94,0.00,,,0.00,Wunderground v.1.15,2013-02-21 11:00:00,
2013-02-21 06:10:00,49.4,48.0,30.07,ENE,61,0.0,0.0,95,0.00,,,0.00,Wunderground v.1.15,2013-02-21 11:10:00,
2013-02-21 06:15:00,49.5,48.1,30.07,ENE,61,0.0,0.0,95,0.00,,,0.00,Wunderground v.1.15,2013-02-21 11:15:00,
2013-02-21 06:25:00,49.9,48.5,30.07,ENE,61,0.0,0.0,95,0.00,,,0.00,Wunderground v.1.15,2013-02-21 11:25:00,
2013-02-21 06:30:00,50.2,49.1,30.07,ENE,61,0.0,0.0,96,0.00,,,0.00,Wunderground v.1.15,2013-02-21 11:30:00,
2013-02-21 06:40:00,50.5,49.1,30.07,ENE,61,0.0,0.0,95,0.00,,,0.00,Wunderground v.1.15,2013-02-21 11:40:00,
2013-02-21 06:45:00,50.6,49.2,30.08,ENE,61,0.0,0.0,95,0.00,,,0.00,Wunderground v.1.15,2013-02-21 11:45:00,
2013-02-21 06:55:00,50.9,49.2,30.08,ENE,61,0.0,0.0,94,0.00,,,0.00,Wunderground v.1.15,2013-02-21 11:55:00,
2013-02-21 07:05:00,51.3,49.3,30.09,ENE,61,0.0,0.0,93,0.00,,,0.00,Wunderground v.1.15,2013-02-21 12:05:00,
2013-02-21 07:15:00,51.5,49.3,30.09,ENE,61,0.0,0.0,92,0.00,,,0.00,Wunderground v.1.15,2013-02-21 12:15:00,
2013-02-21 07:20:00,51.5,49.3,30.09,ENE,61,0.0,0.0,92,0.00,,,0.00,Wunderground v.1.15,2013-02-21 12:20:00,
2013-02-21 07:30:00,51.8,49.5,30.10,ENE,61,0.0,0.0,92,0.00,,,0.00,Wunderground v.1.15,2013-02-21 12:30:00,
2013-02-21 07:35:00,52.1,49.8,30.10,ENE,61,0.0,0.0,92,0.00,,,0.00,Wunderground v.1.15,2013-02-21 12:35:00,
2013-02-21 07:45:00,52.6,50.0,30.10,ENE,61,0.0,0.0,91,0.00,,,0.00,Wunderground v.1.15,2013-02-21 12:45:00,
2013-02-21 07:55:00,53.2,50.3,30.10,ENE,61,0.0,0.0,90,0.00,,,0.00,Wunderground v.1.15,2013-02-21 12:55:00,
2013-02-21 08:00:00,53.4,50.5,30.10,ENE,61,0.0,0.0,90,0.00,,,0.00,Wunderground v.1.15,2013-02-21 13:00:00,
2013-02-21 08:10:00,53.8,50.6,30.11,ENE,61,0.0,0.0,89,0.00,,,0.00,Wunderground v.1.15,2013-02-21 13:10:00,
2013-02-21 08:15:00,54.1,51.2,30.11,ENE,61,0.0,0.0,90,0.00,,,0.00,Wunderground v.1.15,2013-02-21 13:15:00,
2013-02-21 08:25:00,55.1,51.6,30.11,ENE,61,0.0,0.0,88,0.00,,,0.00,Wunderground v.1.15,2013-02-21 13:25:00,
2013-02-21 08:30:00,55.6,51.8,30.12,ENE,61,0.0,0.0,87,0.00,,,0.00,Wunderground v.1.15,2013-02-21 13:30:00,
2013-02-21 08:40:00,56.5,52.0,30.12,ENE,61,0.0,0.0,85,0.00,,,0.00,Wunderground v.1.15,2013-02-21 13:40:00,
2013-02-21 08:50:00,58.0,52.5,30.12,North,355,0.0,0.0,82,0.00,,,0.00,Wunderground v.1.15,2013-02-21 13:50:00,
2013-02-21 08:55:00,58.9,53.1,30.12,North,355,0.0,0.0,81,0.00,,,0.00,Wunderground v.1.15,2013-02-21 13:55:00,
2013-02-21 09:00:00,60.0,53.5,30.12,North,9,0.0,2.0,79,0.00,,,0.00,Wunderground v.1.15,2013-02-21 14:00:00,
2013-02-21 09:10:00,62.0,54.0,30.12,East,92,1.0,1.0,75,0.00,,,0.00,Wunderground v.1.15,2013-02-21 14:10:00,
2013-02-21 09:20:00,63.5,54.3,30.12,NE,55,0.0,0.0,72,0.00,,,0.00,Wunderground v.1.15,2013-02-21 14:20:00,
2013-02-21 09:25:00,64.4,54.8,30.12,ENE,62,0.0,0.0,71,0.00,,,0.00,Wunderground v.1.15,2013-02-21 14:25:00,
2013-02-21 09:35:00,65.9,55.0,30.12,East,94,1.0,1.0,68,0.00,,,0.00,Wunderground v.1.15,2013-02-21 14:35:00,
2013-02-21 09:45:00,67.1,55.8,30.12,NNE,32,1.0,1.0,67,0.00,,,0.00,Wunderground v.1.15,2013-02-21 14:45:00,
2013-02-21 09:55:00,67.9,56.1,30.12,East,81,1.0,1.0,66,0.00,,,0.00,Wunderground v.1.15,2013-02-21 14:55:00,
2013-02-21 10:00:00,68.4,56.2,30.12,NE,42,1.0,1.0,65,0.00,,,0.00,Wunderground v.1.15,2013-02-21 15:00:00,
2013-02-21 10:10:00,69.5,56.8,30.12,North,11,1.0,2.0,64,0.00,,,0.00,Wunderground v.1.15,2013-02-21 15:10:00,
2013-02-21 10:15:00,69.4,56.7,30.12,NE,38,2.0,2.0,64,0.00,,,0.00,Wunderground v.1.15,2013-02-21 15:15:00,
2013-02-21 10:25:00,69.5,56.8,30.12,ESE,118,1.0,2.0,64,0.00,,,0.00,Wunderground v.1.15,2013-02-21 15:25:00,
2013-02-21 10:30:00,70.0,58.1,30.12,ENE,69,1.0,1.0,66,0.00,,,0.00,Wunderground v.1.15,2013-02-21 15:30:00,
2013-02-21 10:40:00,71.0,59.1,30.12,North,5,1.0,1.0,66,0.00,,,0.00,Wunderground v.1.15,2013-02-21 15:40:00,
2013-02-21 10:45:00,71.3,58.9,30.11,East,84,1.0,1.0,65,0.00,,,0.00,Wunderground v.1.15,2013-02-21 15:45:00,
2013-02-21 10:55:00,72.6,60.2,30.11,SSE,148,1.0,1.0,65,0.00,,,0.00,Wunderground v.1.15,2013-02-21 15:55:00,
2013-02-21 11:00:00,73.0,60.1,30.11,SE,130,1.0,1.0,64,0.00,,,0.00,Wunderground v.1.15,2013-02-21 16:00:00,
2013-02-21 11:10:00,73.9,61.8,30.11,SSE,157,2.0,2.0,66,0.00,,,0.00,Wunderground v.1.15,2013-02-21 16:10:00,
2013-02-21 11:15:00,74.5,62.0,30.11,ESE,103,2.0,2.0,65,0.00,,,0.00,Wunderground v.1.15,2013-02-21 16:15:00,
2013-02-21 11:25:00,75.0,62.4,30.10,East,88,2.0,2.0,65,0.00,,,0.00,Wunderground v.1.15,2013-02-21 16:25:00,
2013-02-21 11:30:00,75.4,63.2,30.10,ESE,105,2.0,2.0,66,0.00,,,0.00,Wunderground v.1.15,2013-02-21 16:30:00,
2013-02-21 11:40:00,76.2,63.1,30.10,ESE,123,1.0,3.0,64,0.00,,,0.00,Wunderground v.1.15,2013-02-21 16:40:00,
2013-02-21 11:45:00,76.5,63.4,30.10,SSW,198,1.0,3.0,64,0.00,,,0.00,Wunderground v.1.15,2013-02-21 16:45:00,
2013-02-21 11:55:00,77.3,63.3,30.09,SW,221,2.0,2.0,62,0.00,,,0.00,Wunderground v.1.15,2013-02-21 16:55:00,
2013-02-21 12:05:00,77.2,62.7,30.09,North,5,2.0,2.0,61,0.00,,,0.00,Wunderground v.1.15,2013-02-21 17:05:00,
2013-02-21 12:15:00,78.0,63.0,30.08,SSE,168,2.0,2.0,60,0.00,,,0.00,Wunderground v.1.15,2013-02-21 17:15:00,
2013-02-21 12:20:00,78.3,62.3,30.08,ENE,78,2.0,4.0,58,0.00,,,0.00,Wunderground v.1.15,2013-02-21 17:20:00,
2013-02-21 12:30:00,78.2,63.2,30.07,East,99,1.0,1.0,60,0.00,,,0.00,Wunderground v.1.15,2013-02-21 17:30:00,
2013-02-21 12:35:00,78.5,63.0,30.07,SSE,152,1.0,2.0,59,0.00,,,0.00,Wunderground v.1.15,2013-02-21 17:35:00,
2013-02-21 12:45:00,79.0,63.4,30.07,SE,137,1.0,4.0,59,0.00,,,0.00,Wunderground v.1.15,2013-02-21 17:45:00,
2013-02-21 12:55:00,79.1,64.0,30.06,South,176,1.0,3.0,60,0.00,,,0.00,Wunderground v.1.15,2013-02-21 17:55:00,
2013-02-21 13:00:00,78.9,63.4,30.06,South,182,1.0,1.0,59,0.00,,,0.00,Wunderground v.1.15,2013-02-21 18:00:00,
2013-02-21 13:10:00,78.8,63.7,30.06,ESE,102,1.0,3.0,60,0.00,,,0.00,Wunderground v.1.15,2013-02-21 18:10:00,
2013-02-21 13:15:00,78.4,63.4,30.06,NNW,341,2.0,3.0,60,0.00,,,0.00,Wunderground v.1.15,2013-02-21 18:15:00,
2013-02-21 13:25:00,77.8,63.3,30.05,SE,144,1.0,2.0,61,0.00,,,0.00,Wunderground v.1.15,2013-02-21 18:25:00,
2013-02-21 13:35:00,77.7,63.2,30.05,West,279,1.0,1.0,61,0.00,,,0.00,Wunderground v.1.15,2013-02-21 18:35:00,
2013-02-21 13:45:00,77.5,63.0,30.05,SSW,203,0.0,2.0,61,0.00,,,0.00,Wunderground v.1.15,2013-02-21 18:45:00,
2013-02-21 13:50:00,77.7,63.6,30.04,South,178,1.0,1.0,62,0.00,,,0.00,Wunderground v.1.15,2013-02-21 18:50:00,
2013-02-21 14:00:00,79.1,63.1,30.03,South,190,1.0,1.0,58,0.00,,,0.00,Wunderground v.1.15,2013-02-21 19:00:00,
2013-02-21 14:05:00,80.3,63.7,30.03,SW,216,1.0,1.0,57,0.00,,,0.00,Wunderground v.1.15,2013-02-21 19:05:00,
2013-02-21 14:15:00,81.2,63.5,30.02,NNE,30,1.0,3.0,55,0.00,,,0.00,Wunderground v.1.15,2013-02-21 19:15:00,
2013-02-21 14:20:00,81.0,63.3,30.02,South,179,1.0,3.0,55,0.00,,,0.00,Wunderground v.1.15,2013-02-21 19:20:00,
2013-02-21 14:30:00,80.9,63.7,30.01,NNE,14,2.0,2.0,56,0.00,,,0.00,Wunderground v.1.15,2013-02-21 19:30:00,
2013-02-21 14:35:00,80.7,63.5,30.01,SE,132,2.0,4.0,56,0.00,,,0.00,Wunderground v.1.15,2013-02-21 19:35:00,
2013-02-21 14:45:00,81.2,63.5,30.01,NE,39,1.0,2.0,55,0.00,,,0.00,Wunderground v.1.15,2013-02-21 19:45:00,
2013-02-21 14:50:00,81.1,62.9,30.01,South,178,1.0,1.0,54,0.00,,,0.00,Wunderground v.1.15,2013-02-21 19:50:00,
2013-02-21 15:00:00,82.2,62.8,30.00,SSE,162,2.0,2.0,52,0.00,,,0.00,Wunderground v.1.15,2013-02-21 20:00:00,
2013-02-21 15:05:00,82.8,62.3,30.00,SE,140,2.0,3.0,50,0.00,,,0.00,Wunderground v.1.15,2013-02-21 20:05:00,
2013-02-21 15:10:00,82.8,62.3,30.00,SW,234,2.0,2.0,50,0.00,,,0.00,Wunderground v.1.15,2013-02-21 20:10:00,
2013-02-21 15:15:00,82.3,62.4,30.00,WSW,256,2.0,2.0,51,0.00,,,0.00,Wunderground v.1.15,2013-02-21 20:15:00,
2013-02-21 15:25:00,81.2,62.4,30.00,SSW,213,1.0,1.0,53,0.00,,,0.00,Wunderground v.1.15,2013-02-21 20:25:00,
2013-02-21 15:30:00,80.9,62.2,30.00,SSE,153,0.0,0.0,53,0.00,,,0.00,Wunderground v.1.15,2013-02-21 20:30:00,
2013-02-21 15:40:00,80.5,62.3,30.00,SE,143,1.0,1.0,54,0.00,,,0.00,Wunderground v.1.15,2013-02-21 20:40:00,
2013-02-21 15:45:00,80.4,62.2,30.00,SE,143,0.0,1.0,54,0.00,,,0.00,Wunderground v.1.15,2013-02-21 20:45:00,
2013-02-21 15:55:00,80.0,61.9,29.99,SW,229,1.0,1.0,54,0.00,,,0.00,Wunderground v.1.15,2013-02-21 20:55:00,
2013-02-21 16:05:00,80.0,61.9,30.00,SW,229,0.0,0.0,54,0.00,,,0.00,Wunderground v.1.15,2013-02-21 21:05:00,
2013-02-21 16:15:00,79.7,62.1,30.00,SE,135,1.0,3.0,55,0.00,,,0.00,Wunderground v.1.15,2013-02-21 21:15:00,
2013-02-21 16:20:00,79.8,62.2,30.00,SSW,203,2.0,2.0,55,0.00,,,0.00,Wunderground v.1.15,2013-02-21 21:20:00,
2013-02-21 16:30:00,79.8,62.2,29.99,SE,128,1.0,1.0,55,0.00,,,0.00,Wunderground v.1.15,2013-02-21 21:30:00,
2013-02-21 16:35:00,79.8,62.2,29.99,SE,126,0.0,2.0,55,0.00,,,0.00,Wunderground v.1.15,2013-02-21 21:35:00,
2013-02-21 16:45:00,79.5,61.9,29.99,East,96,1.0,3.0,55,0.00,,,0.00,Wunderground v.1.15,2013-02-21 21:45:00,
2013-02-21 16:50:00,79.2,62.1,29.99,ESE,110,1.0,1.0,56,0.00,,,0.00,Wunderground v.1.15,2013-02-21 21:50:00,
2013-02-21 17:00:00,78.9,61.9,29.99,ENE,68,1.0,2.0,56,0.00,,,0.00,Wunderground v.1.15,2013-02-21 22:00:00,
2013-02-21 17:10:00,78.8,61.8,29.99,ENE,62,0.0,0.0,56,0.00,,,0.00,Wunderground v.1.15,2013-02-21 22:10:00,
2013-02-21 17:20:00,78.8,61.8,29.99,SSE,168,1.0,2.0,56,0.00,,,0.00,Wunderground v.1.15,2013-02-21 22:20:00,
2013-02-21 17:25:00,78.7,61.7,29.99,SE,127,1.0,2.0,56,0.00,,,0.00,Wunderground v.1.15,2013-02-21 22:25:00,
2013-02-21 17:30:00,78.6,62.1,29.99,SE,135,1.0,1.0,57,0.00,,,0.00,Wunderground v.1.15,2013-02-21 22:30:00,
2013-02-21 17:40:00,78.4,61.9,29.99,East,101,1.0,1.0,57,0.00,,,0.00,Wunderground v.1.15,2013-02-21 22:40:00,
2013-02-21 17:50:00,78.0,62.0,29.99,ESE,105,1.0,1.0,58,0.00,,,0.00,Wunderground v.1.15,2013-02-21 22:50:00,
2013-02-21 17:55:00,77.6,62.1,29.99,SSE,150,0.0,1.0,59,0.00,,,0.00,Wunderground v.1.15,2013-02-21 22:55:00,
2013-02-21 18:05:00,77.0,61.6,29.99,ESE,108,0.0,0.0,59,0.00,,,0.00,Wunderground v.1.15,2013-02-21 23:05:00,
2013-02-21 18:15:00,76.3,61.4,29.99,ESE,108,0.0,0.0,60,0.00,,,0.00,Wunderground v.1.15,2013-02-21 23:15:00,
2013-02-21 18:20:00,75.8,61.8,29.99,ESE,108,0.0,0.0,62,0.00,,,0.00,Wunderground v.1.15,2013-02-21 23:20:00,
2013-02-21 18:30:00,74.7,61.7,30.00,ESE,108,0.0,0.0,64,0.00,,,0.00,Wunderground v.1.15,2013-02-21 23:30:00,
2013-02-21 18:35:00,74.1,61.6,30.00,ESE,108,0.0,0.0,65,0.00,,,0.00,Wunderground v.1.15,2013-02-21 23:35:00,
2013-02-21 18:45:00,73.0,61.4,30.00,North,355,0.0,0.0,67,0.00,,,0.00,Wunderground v.1.15,2013-02-21 23:45:00,
2013-02-21 18:50:00,72.5,61.7,30.00,South,178,0.0,1.0,69,0.00,,,0.00,Wunderground v.1.15,2013-02-21 23:50:00,
2013-02-21 19:00:00,72.1,62.2,30.00,SE,136,1.0,1.0,71,0.00,,,0.00,Wunderground v.1.15,2013-02-22 00:00:00,
2013-02-21 19:10:00,71.6,62.9,30.01,NE,42,0.0,5.0,74,0.00,,,0.00,Wunderground v.1.15,2013-02-22 00:10:00,
2013-02-21 19:15:00,71.5,63.2,30.01,North,5,1.0,5.0,75,0.00,,,0.00,Wunderground v.1.15,2013-02-22 00:15:00,
2013-02-21 19:25:00,71.1,63.1,30.01,West,273,0.0,1.0,76,0.00,,,0.00,Wunderground v.1.15,2013-02-22 00:25:00,
2013-02-21 19:30:00,70.8,62.9,30.02,NNE,12,0.0,0.0,76,0.00,,,0.00,Wunderground v.1.15,2013-02-22 00:30:00,
2013-02-21 19:40:00,70.4,62.8,30.02,ENE,65,0.0,0.0,77,0.00,,,0.00,Wunderground v.1.15,2013-02-22 00:40:00,
2013-02-21 19:50:00,69.9,62.7,30.02,North,5,0.0,0.0,78,0.00,,,0.00,Wunderground v.1.15,2013-02-22 00:50:00,
2013-02-21 19:55:00,69.6,62.4,30.02,North,5,0.0,0.0,78,0.00,,,0.00,Wunderground v.1.15,2013-02-22 00:55:00,
2013-02-21 20:00:00,69.3,62.5,30.02,North,5,0.0,0.0,79,0.00,,,0.00,Wunderground v.1.15,2013-02-22 01:00:00,
2013-02-21 20:10:00,68.7,61.9,30.02,ESE,103,0.0,1.0,79,0.00,,,0.00,Wunderground v.1.15,2013-02-22 01:10:00,
2013-02-21 20:20:00,68.3,61.9,30.02,East,81,0.0,0.0,80,0.00,,,0.00,Wunderground v.1.15,2013-02-22 01:20:00,
2013-02-21 20:25:00,68.2,62.1,30.02,NNE,32,0.0,0.0,81,0.00,,,0.00,Wunderground v.1.15,2013-02-22 01:25:00,
2013-02-21 20:35:00,68.0,62.3,30.02,NNE,31,0.0,0.0,82,0.00,,,0.00,Wunderground v.1.15,2013-02-22 01:35:00,
2013-02-21 20:40:00,67.7,61.7,30.03,NNE,31,0.0,0.0,81,0.00,,,0.00,Wunderground v.1.15,2013-02-22 01:40:00,
2013-02-21 20:50:00,67.3,61.6,30.03,NNE,31,0.0,0.0,82,0.00,,,0.00,Wunderground v.1.15,2013-02-22 01:50:00,
2013-02-21 21:00:00,66.7,61.7,30.03,NNE,31,0.0,0.0,84,0.00,,,0.00,Wunderground v.1.15,2013-02-22 02:00:00,
2013-02-21 21:10:00,66.2,61.2,30.03,NNE,31,0.0,0.0,84,0.00,,,0.00,Wunderground v.1.15,2013-02-22 02:10:00,
2013-02-21 21:15:00,65.9,61.3,30.03,NNE,31,0.0,0.0,85,0.00,,,0.00,Wunderground v.1.15,2013-02-22 02:15:00,
2013-02-21 21:20:00,65.6,61.0,30.04,NNE,31,0.0,0.0,85,0.00,,,0.00,Wunderground v.1.15,2013-02-22 02:20:00,
2013-02-21 21:30:00,65.0,60.7,30.03,NNE,31,0.0,0.0,86,0.00,,,0.00,Wunderground v.1.15,2013-02-22 02:30:00,
2013-02-21 21:40:00,64.5,60.5,30.04,NNE,31,0.0,0.0,87,0.00,,,0.00,Wunderground v.1.15,2013-02-22 02:40:00,
2013-02-21 21:45:00,64.3,60.7,30.04,NNE,31,0.0,0.0,88,0.00,,,0.00,Wunderground v.1.15,2013-02-22 02:45:00,
2013-02-21 21:55:00,64.0,60.4,30.04,NNE,31,0.0,0.0,88,0.00,,,0.00,Wunderground v.1.15,2013-02-22 02:55:00,
2013-02-21 22:00:00,63.8,60.5,30.04,NNE,31,0.0,0.0,89,0.00,,,0.00,Wunderground v.1.15,2013-02-22 03:00:00,
2013-02-21 22:10:00,63.6,60.3,30.05,NNE,31,0.0,0.0,89,0.00,,,0.00,Wunderground v.1.15,2013-02-22 03:10:00,
2013-02-21 22:15:00,63.4,60.4,30.05,NNE,31,0.0,0.0,90,0.00,,,0.00,Wunderground v.1.15,2013-02-22 03:15:00,
2013-02-21 22:25:00,63.1,60.1,30.05,NNE,31,0.0,0.0,90,0.00,,,0.00,Wunderground v.1.15,2013-02-22 03:25:00,
2013-02-21 22:35:00,62.8,59.8,30.05,NNE,31,0.0,0.0,90,0.00,,,0.00,Wunderground v.1.15,2013-02-22 03:35:00,
2013-02-21 22:40:00,62.7,59.7,30.05,NNE,31,0.0,0.0,90,0.00,,,0.00,Wunderground v.1.15,2013-02-22 03:40:00,
2013-02-21 22:50:00,62.5,59.5,30.04,NNE,31,0.0,0.0,90,0.00,,,0.00,Wunderground v.1.15,2013-02-22 03:50:00,
2013-02-21 23:00:00,62.2,59.5,30.04,NNE,31,0.0,0.0,91,0.00,,,0.00,Wunderground v.1.15,2013-02-22 04:00:00,
2013-02-21 23:05:00,62.1,59.4,30.04,NNE,31,0.0,0.0,91,0.00,,,0.00,Wunderground v.1.15,2013-02-22 04:05:00,
2013-02-21 23:15:00,61.8,59.1,30.04,NNE,31,0.0,0.0,91,0.00,,,0.00,Wunderground v.1.15,2013-02-22 04:15:00,
2013-02-21 23:20:00,61.6,58.9,30.04,NNE,31,0.0,0.0,91,0.00,,,0.00,Wunderground v.1.15,2013-02-22 04:20:00,
2013-02-21 23:30:00,61.4,58.7,30.04,NNE,31,0.0,0.0,91,0.00,,,0.00,Wunderground v.1.15,2013-02-22 04:30:00,
2013-02-21 23:35:00,61.3,59.0,30.04,NNE,31,0.0,0.0,92,0.00,,,0.00,Wunderground v.1.15,2013-02-22 04:35:00,
2013-02-21 23:45:00,61.2,58.9,30.04,NNE,31,0.0,0.0,92,0.00,,,0.00,Wunderground v.1.15,2013-02-22 04:45:00,
2013-02-21 23:50:00,61.2,58.9,30.04,NNE,31,0.0,0.0,92,0.00,,,0.00,Wunderground v.1.15,2013-02-22 04:50:00,